PWSweather.com
Personal Weather Stations
Station Observations

YeovilGB

Lat: 50.949, Lon: -2.627

Elevation: 70

Station Type: Vantage Pro

http://www.yeovil-weather.me.uk/

High Low Average
Temperature 55.4°F13.0°C 39.4°F4.1°C 49.0°F9.4°C
Dew Point 54.6°F12.6°C 33.7°F0.9°C 45.3°F7.4°C
Winds 17.3 mph 27.8 kmh Calm Calm 7.0 mph SW11.3 kmh SW
Wind Gusts 28.8 mph46.3 kmh -- 13.0 mph20.9 kmh
Humidity 97% 75% 87%
Pressure 30.01 in1016.3 mb 29.71 in1006.1 mb -
Precipitation 0.12 in3.0 mm - -
Hour Temp Dew Point Humidity Winds Wind Gusts Pressure Precip Precip Rate Daily Precip Total
12:00 AM 50.9°F10.5°C 49.6°F9.8°C 95% 15.0 mph S24.1 kmh S 23.0 mph37.0 kmh 29.99 in1015.6 mb - 0.00 in0.0 mm 0.00 in0.0 mm
12:10 AM 51.1°F10.6°C 49.7°F9.8°C 95% 12.7 mph S20.4 kmh S 15.0 mph24.1 kmh 29.98 in1015.2 mb - 0.00 in0.0 mm 0.00 in0.0 mm
12:20 AM 51.3°F10.7°C 49.9°F9.9°C 95% 12.7 mph S20.4 kmh S 27.6 mph44.4 kmh 29.97 in1014.9 mb - 0.00 in0.0 mm 0.00 in0.0 mm
12:30 AM 51.5°F10.8°C 50.1°F10.1°C 95% 11.5 mph S18.5 kmh S 20.7 mph33.3 kmh 29.96 in1014.6 mb - 0.00 in0.0 mm 0.00 in0.0 mm
12:40 AM 51.7°F10.9°C 50.3°F10.2°C 95% 15.0 mph SSW24.1 kmh SSW 25.3 mph40.7 kmh 29.96 in1014.6 mb - 0.00 in0.0 mm 0.00 in0.0 mm
12:50 AM 51.9°F11.1°C 50.5°F10.3°C 95% 11.5 mph S18.5 kmh S 26.5 mph42.6 kmh 29.95 in1014.2 mb - 0.01 in0.3 mm 0.01 in0.3 mm
01:00 AM 52.0°F11.1°C 50.6°F10.3°C 95% 15.0 mph SSW24.1 kmh SSW 25.3 mph40.7 kmh 29.95 in1014.2 mb - 0.00 in0.0 mm 0.01 in0.3 mm
01:10 AM 52.1°F11.2°C 50.7°F10.4°C 95% 15.0 mph SSW24.1 kmh SSW 27.6 mph44.4 kmh 29.93 in1013.5 mb - 0.00 in0.0 mm 0.01 in0.3 mm
01:20 AM 52.1°F11.2°C 50.7°F10.4°C 95% 15.0 mph SSW24.1 kmh SSW 23.0 mph37.0 kmh 29.93 in1013.5 mb - 0.00 in0.0 mm 0.01 in0.3 mm
01:30 AM 52.2°F11.2°C 50.8°F10.4°C 95% 12.7 mph SSW20.4 kmh SSW 25.3 mph40.7 kmh 29.93 in1013.5 mb - 0.01 in0.3 mm 0.02 in0.5 mm
01:40 AM 52.1°F11.2°C 50.7°F10.4°C 95% 11.5 mph SSW18.5 kmh SSW 19.6 mph31.5 kmh 29.92 in1013.2 mb - 0.00 in0.0 mm 0.02 in0.5 mm
01:50 AM 52.2°F11.2°C 50.8°F10.4°C 95% 11.5 mph SSW18.5 kmh SSW 20.7 mph33.3 kmh 29.92 in1013.2 mb - 0.00 in0.0 mm 0.02 in0.5 mm
02:00 AM 52.3°F11.3°C 50.9°F10.5°C 95% 12.7 mph SSW20.4 kmh SSW 24.2 mph38.9 kmh 29.91 in1012.9 mb - 0.01 in0.3 mm 0.02 in0.5 mm
02:10 AM 52.4°F11.3°C 51.0°F10.6°C 95% 12.7 mph S20.4 kmh S 26.5 mph42.6 kmh 29.90 in1012.5 mb - 0.00 in0.0 mm 0.02 in0.5 mm
02:20 AM 52.5°F11.4°C 51.4°F10.8°C 96% 13.8 mph SSW22.2 kmh SSW 21.9 mph35.2 kmh 29.90 in1012.5 mb - 0.01 in0.3 mm 0.03 in0.8 mm
02:30 AM 52.6°F11.4°C 51.5°F10.8°C 96% 12.7 mph S20.4 kmh S 18.4 mph29.6 kmh 29.89 in1012.2 mb - 0.00 in0.0 mm 0.03 in0.8 mm
02:40 AM 52.6°F11.4°C 51.5°F10.8°C 96% 16.1 mph S25.9 kmh S 26.5 mph42.6 kmh 29.88 in1011.9 mb - 0.00 in0.0 mm 0.03 in0.8 mm
02:50 AM 52.7°F11.5°C 51.6°F10.9°C 96% 17.3 mph SSW27.8 kmh SSW 23.0 mph37.0 kmh 29.87 in1011.5 mb - 0.01 in0.3 mm 0.04 in1.0 mm
03:00 AM 52.8°F11.6°C 51.7°F10.9°C 96% 16.1 mph S25.9 kmh S 23.0 mph37.0 kmh 29.87 in1011.5 mb - 0.00 in0.0 mm 0.04 in1.0 mm
03:10 AM 52.9°F11.6°C 51.8°F11.0°C 96% 13.8 mph SSW22.2 kmh SSW 24.2 mph38.9 kmh 29.87 in1011.5 mb - 0.01 in0.3 mm 0.05 in1.3 mm
03:20 AM 53.0°F11.7°C 51.9°F11.1°C 96% 16.1 mph S25.9 kmh S 27.6 mph44.4 kmh 29.86 in1011.2 mb - 0.00 in0.0 mm 0.05 in1.3 mm
03:30 AM 53.1°F11.7°C 52.0°F11.1°C 96% 10.4 mph SSW16.7 kmh SSW 20.7 mph33.3 kmh 29.86 in1011.2 mb - 0.00 in0.0 mm 0.05 in1.3 mm
03:40 AM 53.2°F11.8°C 52.1°F11.2°C 96% 12.7 mph SSW20.4 kmh SSW 23.0 mph37.0 kmh 29.85 in1010.8 mb - 0.01 in0.3 mm 0.06 in1.5 mm
03:50 AM 53.2°F11.8°C 52.1°F11.2°C 96% 15.0 mph SSW24.1 kmh SSW 26.5 mph42.6 kmh 29.84 in1010.5 mb - 0.01 in0.3 mm 0.06 in1.5 mm
04:00 AM 53.3°F11.8°C 52.2°F11.2°C 96% 9.2 mph SSW14.8 kmh SSW 18.4 mph29.6 kmh 29.83 in1010.2 mb - 0.01 in0.3 mm 0.07 in1.8 mm
04:10 AM 53.3°F11.8°C 52.2°F11.2°C 96% 13.8 mph S22.2 kmh S 19.6 mph31.5 kmh 29.83 in1010.2 mb - 0.01 in0.3 mm 0.08 in2.0 mm
04:20 AM 53.3°F11.8°C 52.2°F11.2°C 96% 15.0 mph S24.1 kmh S 20.7 mph33.3 kmh 29.83 in1010.2 mb - 0.00 in0.0 mm 0.08 in2.0 mm
04:30 AM 53.4°F11.9°C 52.3°F11.3°C 96% 15.0 mph S24.1 kmh S 28.8 mph46.3 kmh 29.82 in1009.8 mb - 0.01 in0.3 mm 0.09 in2.3 mm
04:40 AM 53.6°F12.0°C 52.5°F11.4°C 96% 8.1 mph SSW13.0 kmh SSW 13.8 mph22.2 kmh 29.81 in1009.5 mb - 0.00 in0.0 mm 0.09 in2.3 mm
04:50 AM 53.9°F12.2°C 52.8°F11.6°C 96% 10.4 mph SSW16.7 kmh SSW 13.8 mph22.2 kmh 29.80 in1009.1 mb - 0.00 in0.0 mm 0.09 in2.3 mm
05:00 AM 54.0°F12.2°C 52.9°F11.6°C 96% 12.7 mph S20.4 kmh S 24.2 mph38.9 kmh 29.79 in1008.8 mb - 0.00 in0.0 mm 0.09 in2.3 mm
05:10 AM 54.3°F12.4°C 53.2°F11.8°C 96% 12.7 mph SSW20.4 kmh SSW 23.0 mph37.0 kmh 29.79 in1008.8 mb - 0.00 in0.0 mm 0.09 in2.3 mm
05:20 AM 54.4°F12.4°C 53.3°F11.8°C 96% 10.4 mph SSW16.7 kmh SSW 16.1 mph25.9 kmh 29.78 in1008.5 mb - 0.00 in0.0 mm 0.09 in2.3 mm
05:30 AM 54.4°F12.4°C 53.2°F11.8°C 96% 11.5 mph SSW18.5 kmh SSW 23.0 mph37.0 kmh 29.78 in1008.5 mb - 0.01 in0.3 mm 0.09 in2.3 mm
05:40 AM 54.3°F12.4°C 53.2°F11.8°C 96% 12.7 mph S20.4 kmh S 25.3 mph40.7 kmh 29.77 in1008.1 mb - 0.00 in0.0 mm 0.09 in2.3 mm
05:50 AM 54.4°F12.4°C 53.3°F11.8°C 96% 13.8 mph S22.2 kmh S 21.9 mph35.2 kmh 29.76 in1007.8 mb - 0.00 in0.0 mm 0.09 in2.3 mm
06:00 AM 54.5°F12.5°C 53.4°F11.9°C 96% 10.4 mph S16.7 kmh S 27.6 mph44.4 kmh 29.76 in1007.8 mb - 0.01 in0.3 mm 0.10 in2.5 mm
06:10 AM 54.7°F12.6°C 53.6°F12.0°C 96% 11.5 mph SSW18.5 kmh SSW 24.2 mph38.9 kmh 29.75 in1007.5 mb - 0.00 in0.0 mm 0.10 in2.5 mm
06:20 AM 54.8°F12.7°C 53.7°F12.1°C 96% 12.7 mph SSW20.4 kmh SSW 24.2 mph38.9 kmh 29.75 in1007.5 mb - 0.00 in0.0 mm 0.10 in2.5 mm
06:30 AM 54.8°F12.7°C 53.7°F12.1°C 96% 10.4 mph SSW16.7 kmh SSW 23.0 mph37.0 kmh 29.75 in1007.5 mb - 0.00 in0.0 mm 0.10 in2.5 mm
06:40 AM 54.8°F12.7°C 53.7°F12.1°C 96% 11.5 mph SSW18.5 kmh SSW 18.4 mph29.6 kmh 29.74 in1007.1 mb - 0.00 in0.0 mm 0.10 in2.5 mm
06:50 AM 54.8°F12.7°C 53.7°F12.1°C 96% 9.2 mph SSW14.8 kmh SSW 11.5 mph18.5 kmh 29.74 in1007.1 mb - 0.00 in0.0 mm 0.10 in2.5 mm
07:00 AM 54.9°F12.7°C 53.8°F12.1°C 96% 9.2 mph SSW14.8 kmh SSW 11.5 mph18.5 kmh 29.73 in1006.8 mb - 0.00 in0.0 mm 0.10 in2.5 mm
07:10 AM 54.9°F12.7°C 53.8°F12.1°C 96% 9.2 mph S14.8 kmh S 12.7 mph20.4 kmh 29.73 in1006.8 mb - 0.00 in0.0 mm 0.10 in2.5 mm
07:20 AM 55.0°F12.8°C 53.8°F12.1°C 96% 10.4 mph SSW16.7 kmh SSW 19.6 mph31.5 kmh 29.73 in1006.8 mb - 0.00 in0.0 mm 0.10 in2.5 mm
07:30 AM 55.0°F12.8°C 53.9°F12.2°C 96% 10.4 mph SSW16.7 kmh SSW 16.1 mph25.9 kmh 29.73 in1006.8 mb - 0.00 in0.0 mm 0.10 in2.5 mm
07:40 AM 55.0°F12.8°C 53.8°F12.1°C 96% 9.2 mph S14.8 kmh S 18.4 mph29.6 kmh 29.73 in1006.8 mb - 0.00 in0.0 mm 0.10 in2.5 mm
07:50 AM 55.0°F12.8°C 53.9°F12.2°C 96% 8.1 mph SSW13.0 kmh SSW 15.0 mph24.1 kmh 29.73 in1006.8 mb - 0.00 in0.0 mm 0.10 in2.5 mm
08:00 AM 55.0°F12.8°C 53.9°F12.2°C 96% 9.2 mph SSW14.8 kmh SSW 16.1 mph25.9 kmh 29.73 in1006.8 mb - 0.00 in0.0 mm 0.10 in2.5 mm
08:10 AM 55.0°F12.8°C 53.9°F12.2°C 96% 10.4 mph SW16.7 kmh SW 19.6 mph31.5 kmh 29.73 in1006.8 mb - 0.00 in0.0 mm 0.10 in2.5 mm
08:20 AM 55.0°F12.8°C 53.9°F12.2°C 96% 8.1 mph SSW13.0 kmh SSW 11.5 mph18.5 kmh 29.72 in1006.4 mb - 0.00 in0.0 mm 0.10 in2.5 mm
08:30 AM 55.0°F12.8°C 53.9°F12.2°C 96% 4.6 mph SSW7.4 kmh SSW 11.5 mph18.5 kmh 29.72 in1006.4 mb - 0.00 in0.0 mm 0.10 in2.5 mm
08:40 AM 55.0°F12.8°C 53.8°F12.1°C 96% 6.9 mph SSW11.1 kmh SSW 15.0 mph24.1 kmh 29.72 in1006.4 mb - 0.01 in0.3 mm 0.11 in2.8 mm
08:50 AM 54.9°F12.7°C 53.8°F12.1°C 96% 4.6 mph SW7.4 kmh SW 13.8 mph22.2 kmh 29.72 in1006.4 mb - 0.00 in0.0 mm 0.11 in2.8 mm
09:00 AM 54.9°F12.7°C 53.8°F12.1°C 96% 8.1 mph SSW13.0 kmh SSW 12.7 mph20.4 kmh 29.72 in1006.4 mb - 0.01 in0.3 mm 0.12 in3.0 mm
09:10 AM 54.9°F12.7°C 53.8°F12.1°C 96% 5.8 mph SSW9.3 kmh SSW 11.5 mph18.5 kmh 29.71 in1006.1 mb - 0.00 in0.0 mm 0.12 in3.0 mm
09:20 AM 54.9°F12.7°C 53.8°F12.1°C 96% 3.5 mph SSW5.6 kmh SSW 11.5 mph18.5 kmh 29.72 in1006.4 mb - 0.00 in0.0 mm 0.12 in3.0 mm
09:30 AM 55.0°F12.8°C 53.9°F12.2°C 96% 4.6 mph SSW7.4 kmh SSW 8.1 mph13.0 kmh 29.72 in1006.4 mb - 0.00 in0.0 mm 0.12 in3.0 mm
09:40 AM 55.0°F12.8°C 53.9°F12.2°C 96% 4.6 mph SW7.4 kmh SW 10.4 mph16.7 kmh 29.73 in1006.8 mb - 0.00 in0.0 mm 0.12 in3.0 mm
09:50 AM 55.0°F12.8°C 53.9°F12.2°C 96% 2.3 mph SSW3.7 kmh SSW 8.1 mph13.0 kmh 29.73 in1006.8 mb - 0.00 in0.0 mm 0.12 in3.0 mm
10:00 AM 55.0°F12.8°C 53.9°F12.2°C 96% 3.5 mph SW5.6 kmh SW 11.5 mph18.5 kmh 29.73 in1006.8 mb - 0.00 in0.0 mm 0.12 in3.0 mm
10:10 AM 55.1°F12.8°C 54.3°F12.4°C 97% 3.5 mph SW5.6 kmh SW 11.5 mph18.5 kmh 29.73 in1006.8 mb - 0.00 in0.0 mm 0.12 in3.0 mm
10:20 AM 55.4°F13.0°C 54.6°F12.6°C 97% 3.5 mph SW5.6 kmh SW 9.2 mph14.8 kmh 29.74 in1007.1 mb - 0.00 in0.0 mm 0.12 in3.0 mm
10:30 AM 55.4°F13.0°C 54.2°F12.3°C 96% 2.3 mph SW3.7 kmh SW 8.1 mph13.0 kmh 29.74 in1007.1 mb - 0.00 in0.0 mm 0.12 in3.0 mm
10:40 AM 55.2°F12.9°C 54.1°F12.3°C 96% 4.6 mph WNW7.4 kmh WNW 5.8 mph9.3 kmh 29.75 in1007.5 mb - 0.00 in0.0 mm 0.12 in3.0 mm
10:50 AM 53.0°F11.7°C 51.3°F10.7°C 94% 6.9 mph NW11.1 kmh NW 23.0 mph37.0 kmh 29.77 in1008.1 mb - 0.00 in0.0 mm 0.12 in3.0 mm
11:00 AM 50.4°F10.2°C 48.2°F9.0°C 92% 5.8 mph W9.3 kmh W 11.5 mph18.5 kmh 29.77 in1008.1 mb - 0.00 in0.0 mm 0.12 in3.0 mm
11:10 AM 49.6°F9.8°C 47.1°F8.4°C 91% 5.8 mph W9.3 kmh W 11.5 mph18.5 kmh 29.78 in1008.5 mb - 0.00 in0.0 mm 0.12 in3.0 mm
11:20 AM 49.3°F9.6°C 46.2°F7.9°C 89% 6.9 mph WNW11.1 kmh WNW 11.5 mph18.5 kmh 29.78 in1008.5 mb - 0.00 in0.0 mm 0.12 in3.0 mm
11:30 AM 49.1°F9.5°C 45.7°F7.6°C 88% 8.1 mph WNW13.0 kmh WNW 19.6 mph31.5 kmh 29.79 in1008.8 mb - 0.00 in0.0 mm 0.12 in3.0 mm
11:40 AM 48.9°F9.4°C 45.2°F7.3°C 87% 4.6 mph WNW7.4 kmh WNW 13.8 mph22.2 kmh 29.80 in1009.1 mb - 0.00 in0.0 mm 0.12 in3.0 mm
11:50 AM 48.8°F9.3°C 44.5°F6.9°C 85% 6.9 mph W11.1 kmh W 11.5 mph18.5 kmh 29.81 in1009.5 mb - 0.00 in0.0 mm 0.12 in3.0 mm
12:00 PM 48.9°F9.4°C 44.3°F6.8°C 84% 8.1 mph NW13.0 kmh NW 19.6 mph31.5 kmh 29.81 in1009.5 mb - 0.00 in0.0 mm 0.12 in3.0 mm
12:10 PM 49.3°F9.6°C 44.7°F7.1°C 84% 5.8 mph NW9.3 kmh NW 13.8 mph22.2 kmh 29.82 in1009.8 mb - 0.00 in0.0 mm 0.12 in3.0 mm
12:20 PM 49.5°F9.7°C 43.9°F6.6°C 81% 6.9 mph WNW11.1 kmh WNW 10.4 mph16.7 kmh 29.83 in1010.2 mb - 0.00 in0.0 mm 0.12 in3.0 mm
12:30 PM 49.3°F9.6°C 43.1°F6.2°C 79% 3.5 mph NW5.6 kmh NW 13.8 mph22.2 kmh 29.83 in1010.2 mb - 0.00 in0.0 mm 0.12 in3.0 mm
12:40 PM 49.1°F9.5°C 42.5°F5.8°C 78% 6.9 mph NW11.1 kmh NW 13.8 mph22.2 kmh 29.84 in1010.5 mb - 0.00 in0.0 mm 0.12 in3.0 mm
12:50 PM 49.2°F9.6°C 42.6°F5.9°C 78% 3.5 mph NW5.6 kmh NW 5.8 mph9.3 kmh 29.85 in1010.8 mb - 0.00 in0.0 mm 0.12 in3.0 mm
01:00 PM 49.4°F9.7°C 42.5°F5.8°C 77% 3.5 mph WNW5.6 kmh WNW 10.4 mph16.7 kmh 29.85 in1010.8 mb - 0.00 in0.0 mm 0.12 in3.0 mm
01:10 PM 49.2°F9.6°C 42.3°F5.7°C 77% 3.5 mph NW5.6 kmh NW 9.2 mph14.8 kmh 29.85 in1010.8 mb - 0.00 in0.0 mm 0.12 in3.0 mm
01:20 PM 48.7°F9.3°C 42.1°F5.6°C 78% 2.3 mph NNW3.7 kmh NNW 4.6 mph7.4 kmh 29.86 in1011.2 mb - 0.00 in0.0 mm 0.12 in3.0 mm
01:30 PM 48.3°F9.1°C 41.5°F5.3°C 77% 1.2 mph NW1.9 kmh NW 6.9 mph11.1 kmh 29.86 in1011.2 mb - 0.00 in0.0 mm 0.12 in3.0 mm
01:40 PM 48.2°F9.0°C 41.6°F5.3°C 78% 2.3 mph NW3.7 kmh NW 8.1 mph13.0 kmh 29.86 in1011.2 mb - 0.00 in0.0 mm 0.12 in3.0 mm
01:50 PM 48.0°F8.9°C 41.5°F5.3°C 78% 3.5 mph NW5.6 kmh NW 6.9 mph11.1 kmh 29.85 in1010.8 mb - 0.00 in0.0 mm 0.12 in3.0 mm
02:00 PM 47.9°F8.8°C 41.4°F5.2°C 78% 2.3 mph WNW3.7 kmh WNW 3.5 mph5.6 kmh 29.84 in1010.5 mb - 0.00 in0.0 mm 0.12 in3.0 mm
02:10 PM 47.8°F8.8°C 41.2°F5.1°C 78% 1.2 mph WNW1.9 kmh WNW 10.4 mph16.7 kmh 29.84 in1010.5 mb - 0.00 in0.0 mm 0.12 in3.0 mm
02:20 PM 47.9°F8.8°C 41.7°F5.4°C 79% 4.6 mph NW7.4 kmh NW 9.2 mph14.8 kmh 29.84 in1010.5 mb - 0.00 in0.0 mm 0.12 in3.0 mm
02:30 PM 48.2°F9.0°C 42.0°F5.6°C 79% 8.1 mph WNW13.0 kmh WNW 12.7 mph20.4 kmh 29.85 in1010.8 mb - 0.00 in0.0 mm 0.12 in3.0 mm
02:40 PM 48.0°F8.9°C 41.5°F5.3°C 78% 3.5 mph WNW5.6 kmh WNW 9.2 mph14.8 kmh 29.86 in1011.2 mb - 0.00 in0.0 mm 0.12 in3.0 mm
02:50 PM 47.6°F8.7°C 41.1°F5.1°C 78% 6.9 mph NW11.1 kmh NW 11.5 mph18.5 kmh 29.87 in1011.5 mb - 0.00 in0.0 mm 0.12 in3.0 mm
03:00 PM 47.3°F8.5°C 40.8°F4.9°C 78% 3.5 mph NW5.6 kmh NW 4.6 mph7.4 kmh 29.88 in1011.9 mb - 0.00 in0.0 mm 0.12 in3.0 mm
03:10 PM 47.0°F8.3°C 40.2°F4.6°C 77% 4.6 mph NW7.4 kmh NW 6.9 mph11.1 kmh 29.88 in1011.9 mb - 0.00 in0.0 mm 0.12 in3.0 mm
03:20 PM 47.0°F8.3°C 40.5°F4.7°C 78% 8.1 mph WNW13.0 kmh WNW 16.1 mph25.9 kmh 29.88 in1011.9 mb - 0.00 in0.0 mm 0.12 in3.0 mm
03:30 PM 46.7°F8.2°C 40.2°F4.6°C 78% 6.9 mph NW11.1 kmh NW 10.4 mph16.7 kmh 29.89 in1012.2 mb - 0.00 in0.0 mm 0.12 in3.0 mm
03:40 PM 46.5°F8.1°C 40.0°F4.4°C 78% 5.8 mph NW9.3 kmh NW 16.1 mph25.9 kmh 29.90 in1012.5 mb - 0.00 in0.0 mm 0.12 in3.0 mm
03:50 PM 46.3°F7.9°C 39.5°F4.2°C 77% 4.6 mph NW7.4 kmh NW 12.7 mph20.4 kmh 29.90 in1012.5 mb - 0.00 in0.0 mm 0.12 in3.0 mm
04:00 PM 46.0°F7.8°C 39.5°F4.2°C 78% 8.1 mph WNW13.0 kmh WNW 12.7 mph20.4 kmh 29.91 in1012.9 mb - 0.00 in0.0 mm 0.12 in3.0 mm
04:10 PM 45.6°F7.6°C 38.5°F3.6°C 76% 3.5 mph WNW5.6 kmh WNW 10.4 mph16.7 kmh 29.91 in1012.9 mb - 0.00 in0.0 mm 0.12 in3.0 mm
04:20 PM 45.4°F7.4°C 38.3°F3.5°C 76% 3.5 mph WSW5.6 kmh WSW 9.2 mph14.8 kmh 29.92 in1013.2 mb - 0.00 in0.0 mm 0.12 in3.0 mm
04:30 PM 45.1°F7.3°C 38.6°F3.7°C 78% 1.2 mph SW1.9 kmh SW 8.1 mph13.0 kmh 29.93 in1013.5 mb - 0.00 in0.0 mm 0.12 in3.0 mm
04:40 PM 44.8°F7.1°C 38.4°F3.6°C 78% 4.6 mph WNW7.4 kmh WNW 6.9 mph11.1 kmh 29.93 in1013.5 mb - 0.00 in0.0 mm 0.12 in3.0 mm
04:50 PM 44.7°F7.1°C 38.2°F3.4°C 78% 3.5 mph WSW5.6 kmh WSW 4.6 mph7.4 kmh 29.94 in1013.9 mb - 0.00 in0.0 mm 0.12 in3.0 mm
05:00 PM 44.5°F6.9°C 38.1°F3.4°C 78% Calm Calm 3.5 mph5.6 kmh 29.94 in1013.9 mb - 0.00 in0.0 mm 0.12 in3.0 mm
05:10 PM 44.4°F6.9°C 38.3°F3.5°C 79% 1.2 mph WNW1.9 kmh WNW 3.5 mph5.6 kmh 29.95 in1014.2 mb - 0.00 in0.0 mm 0.12 in3.0 mm
05:20 PM 44.3°F6.8°C 38.2°F3.4°C 79% Calm Calm 5.8 mph9.3 kmh 29.95 in1014.2 mb - 0.00 in0.0 mm 0.12 in3.0 mm
05:30 PM 44.2°F6.8°C 38.1°F3.4°C 79% Calm Calm 9.2 mph14.8 kmh 29.95 in1014.2 mb - 0.00 in0.0 mm 0.12 in3.0 mm
05:40 PM 44.2°F6.8°C 37.8°F3.2°C 78% Calm Calm -- 29.96 in1014.6 mb - 0.00 in0.0 mm 0.12 in3.0 mm
05:50 PM 44.2°F6.8°C 37.8°F3.2°C 78% Calm Calm -- 29.95 in1014.2 mb - 0.00 in0.0 mm 0.12 in3.0 mm
06:00 PM 44.1°F6.7°C 38.0°F3.3°C 79% Calm Calm -- 29.96 in1014.6 mb - 0.00 in0.0 mm 0.12 in3.0 mm
06:10 PM 43.8°F6.6°C 37.7°F3.2°C 79% 3.5 mph WSW5.6 kmh WSW 8.1 mph13.0 kmh 29.96 in1014.6 mb - 0.00 in0.0 mm 0.12 in3.0 mm
06:20 PM 43.8°F6.6°C 37.1°F2.8°C 77% 1.2 mph SW1.9 kmh SW 8.1 mph13.0 kmh 29.96 in1014.6 mb - 0.00 in0.0 mm 0.12 in3.0 mm
06:30 PM 43.9°F6.6°C 36.8°F2.7°C 76% 2.3 mph SW3.7 kmh SW 6.9 mph11.1 kmh 29.96 in1014.6 mb - 0.00 in0.0 mm 0.12 in3.0 mm
06:40 PM 43.8°F6.6°C 36.4°F2.4°C 75% 3.5 mph WSW5.6 kmh WSW 6.9 mph11.1 kmh 29.96 in1014.6 mb - 0.00 in0.0 mm 0.12 in3.0 mm
07:00 PM 43.7°F6.5°C 36.6°F2.6°C 76% 3.5 mph WSW5.6 kmh WSW 6.9 mph11.1 kmh 29.97 in1014.9 mb - 0.00 in0.0 mm 0.12 in3.0 mm
07:10 PM 43.4°F6.3°C 36.3°F2.4°C 76% 4.6 mph SW7.4 kmh SW 9.2 mph14.8 kmh 29.97 in1014.9 mb - 0.00 in0.0 mm 0.12 in3.0 mm
07:20 PM 43.2°F6.2°C 36.1°F2.3°C 76% 2.3 mph W3.7 kmh W 3.5 mph5.6 kmh 29.97 in1014.9 mb - 0.00 in0.0 mm 0.12 in3.0 mm
07:30 PM 43.4°F6.3°C 36.0°F2.2°C 75% 5.8 mph SW9.3 kmh SW 11.5 mph18.5 kmh 29.97 in1014.9 mb - 0.00 in0.0 mm 0.12 in3.0 mm
07:50 PM 43.6°F6.4°C 36.2°F2.3°C 75% 3.5 mph SW5.6 kmh SW 6.9 mph11.1 kmh 29.98 in1015.2 mb - 0.00 in0.0 mm 0.12 in3.0 mm
08:00 PM 43.7°F6.5°C 37.0°F2.8°C 77% 2.3 mph W3.7 kmh W 5.8 mph9.3 kmh 29.99 in1015.6 mb - 0.00 in0.0 mm 0.12 in3.0 mm
08:10 PM 43.6°F6.4°C 37.8°F3.2°C 80% 3.5 mph WSW5.6 kmh WSW 9.2 mph14.8 kmh 29.98 in1015.2 mb - 0.00 in0.0 mm 0.12 in3.0 mm
08:20 PM 43.1°F6.2°C 37.7°F3.2°C 81% 3.5 mph WSW5.6 kmh WSW 8.1 mph13.0 kmh 29.98 in1015.2 mb - 0.00 in0.0 mm 0.12 in3.0 mm
08:30 PM 42.7°F5.9°C 37.6°F3.1°C 82% 3.5 mph SW5.6 kmh SW 6.9 mph11.1 kmh 29.99 in1015.6 mb - 0.00 in0.0 mm 0.12 in3.0 mm
08:40 PM 42.4°F5.8°C 37.3°F2.9°C 82% 1.2 mph W1.9 kmh W 6.9 mph11.1 kmh 29.99 in1015.6 mb - 0.00 in0.0 mm 0.12 in3.0 mm
08:50 PM 42.1°F5.6°C 37.0°F2.8°C 82% Calm Calm 4.6 mph7.4 kmh 29.99 in1015.6 mb - 0.00 in0.0 mm 0.12 in3.0 mm
09:00 PM 41.9°F5.5°C 36.8°F2.7°C 82% Calm Calm 4.6 mph7.4 kmh 29.99 in1015.6 mb - 0.00 in0.0 mm 0.12 in3.0 mm
09:10 PM 41.6°F5.3°C 36.5°F2.5°C 82% Calm Calm -- 29.99 in1015.6 mb - 0.00 in0.0 mm 0.12 in3.0 mm
09:20 PM 41.4°F5.2°C 36.3°F2.4°C 82% Calm Calm 2.3 mph3.7 kmh 29.99 in1015.6 mb - 0.00 in0.0 mm 0.12 in3.0 mm
09:30 PM 41.3°F5.2°C 36.2°F2.3°C 82% Calm Calm 2.3 mph3.7 kmh 29.99 in1015.6 mb - 0.00 in0.0 mm 0.12 in3.0 mm
09:40 PM 41.4°F5.2°C 36.3°F2.4°C 82% Calm Calm -- 29.99 in1015.6 mb - 0.00 in0.0 mm 0.12 in3.0 mm
09:50 PM 41.3°F5.2°C 36.2°F2.3°C 82% Calm Calm -- 29.99 in1015.6 mb - 0.00 in0.0 mm 0.12 in3.0 mm
10:00 PM 41.1°F5.1°C 36.0°F2.2°C 82% Calm Calm -- 29.99 in1015.6 mb - 0.00 in0.0 mm 0.12 in3.0 mm
10:10 PM 41.0°F5.0°C 35.9°F2.2°C 82% 1.2 mph SW1.9 kmh SW 3.5 mph5.6 kmh 29.99 in1015.6 mb - 0.00 in0.0 mm 0.12 in3.0 mm
10:20 PM 41.2°F5.1°C 35.8°F2.1°C 81% Calm Calm -- 29.99 in1015.6 mb - 0.00 in0.0 mm 0.12 in3.0 mm
10:30 PM 40.9°F4.9°C 35.5°F1.9°C 81% Calm Calm 1.2 mph1.9 kmh 29.99 in1015.6 mb - 0.00 in0.0 mm 0.12 in3.0 mm
10:40 PM 40.5°F4.7°C 35.4°F1.9°C 82% 1.2 mph SW1.9 kmh SW 4.6 mph7.4 kmh 29.99 in1015.6 mb - 0.00 in0.0 mm 0.12 in3.0 mm
10:50 PM 40.1°F4.5°C 35.4°F1.9°C 83% 4.6 mph SW7.4 kmh SW 9.2 mph14.8 kmh 29.99 in1015.6 mb - 0.00 in0.0 mm 0.12 in3.0 mm
11:00 PM 39.8°F4.3°C 34.8°F1.6°C 82% 2.3 mph SW3.7 kmh SW 9.2 mph14.8 kmh 29.98 in1015.2 mb - 0.00 in0.0 mm 0.12 in3.0 mm
11:10 PM 39.7°F4.3°C 34.7°F1.5°C 82% Calm Calm -- 29.98 in1015.2 mb - 0.00 in0.0 mm 0.12 in3.0 mm
11:20 PM 39.7°F4.3°C 34.3°F1.3°C 81% 2.3 mph SW3.7 kmh SW 3.5 mph5.6 kmh 29.99 in1015.6 mb - 0.00 in0.0 mm 0.12 in3.0 mm
11:30 PM 39.6°F4.2°C 33.9°F1.1°C 80% Calm Calm 2.3 mph3.7 kmh 29.99 in1015.6 mb - 0.00 in0.0 mm 0.12 in3.0 mm
11:40 PM 39.4°F4.1°C 33.7°F0.9°C 80% 2.3 mph SW3.7 kmh SW 9.2 mph14.8 kmh 30.00 in1015.9 mb - 0.00 in0.0 mm 0.12 in3.0 mm
11:50 PM 40.0°F4.4°C 34.0°F1.1°C 79% Calm Calm -- 30.01 in1016.3 mb - 0.00 in0.0 mm 0.12 in3.0 mm